sensor_id;sensor_type;location;lat;lon;timestamp;P1;durP1;ratioP1;P2;durP2;ratioP2
18726;SDS011;9492;51.888;5.186;2022-09-12T00:01:39;19.20;;;14.33;;
18726;SDS011;9492;51.888;5.186;2022-09-12T00:04:05;16.70;;;13.47;;
18726;SDS011;9492;51.888;5.186;2022-09-12T00:06:33;17.07;;;14.03;;
18726;SDS011;9492;51.888;5.186;2022-09-12T00:09:00;17.73;;;14.43;;
18726;SDS011;9492;51.888;5.186;2022-09-12T00:11:27;19.57;;;14.27;;
18726;SDS011;9492;51.888;5.186;2022-09-12T00:13:57;17.87;;;14.63;;
18726;SDS011;9492;51.888;5.186;2022-09-12T00:16:24;17.00;;;14.80;;
18726;SDS011;9492;51.888;5.186;2022-09-12T00:18:50;20.77;;;14.97;;
18726;SDS011;9492;51.888;5.186;2022-09-12T00:21:18;20.27;;;15.93;;
18726;SDS011;9492;51.888;5.186;2022-09-12T00:23:44;21.13;;;16.83;;
18726;SDS011;9492;51.888;5.186;2022-09-12T00:26:11;20.87;;;16.73;;
18726;SDS011;9492;51.888;5.186;2022-09-12T00:28:37;20.53;;;16.20;;
18726;SDS011;9492;51.888;5.186;2022-09-12T00:31:05;20.20;;;15.60;;
18726;SDS011;9492;51.888;5.186;2022-09-12T00:33:31;21.17;;;16.47;;
18726;SDS011;9492;51.888;5.186;2022-09-12T00:35:57;19.33;;;15.43;;
18726;SDS011;9492;51.888;5.186;2022-09-12T00:38:23;22.50;;;15.70;;
18726;SDS011;9492;51.888;5.186;2022-09-12T00:40:49;22.03;;;15.93;;
18726;SDS011;9492;51.888;5.186;2022-09-12T00:46:13;15.37;;;12.97;;
18726;SDS011;9492;51.888;5.186;2022-09-12T00:48:43;19.60;;;15.27;;
18726;SDS011;9492;51.888;5.186;2022-09-12T00:51:10;17.60;;;13.47;;
18726;SDS011;9492;51.888;5.186;2022-09-12T00:53:37;17.03;;;14.23;;
18726;SDS011;9492;51.888;5.186;2022-09-12T00:56:03;16.00;;;13.43;;
18726;SDS011;9492;51.888;5.186;2022-09-12T00:58:36;23.53;;;15.77;;
18726;SDS011;9492;51.888;5.186;2022-09-12T01:01:04;18.70;;;15.23;;
18726;SDS011;9492;51.888;5.186;2022-09-12T01:03:30;17.73;;;14.80;;
18726;SDS011;9492;51.888;5.186;2022-09-12T01:06:15;15.97;;;13.47;;
18726;SDS011;9492;51.888;5.186;2022-09-12T01:08:42;18.57;;;15.20;;
18726;SDS011;9492;51.888;5.186;2022-09-12T01:11:10;19.90;;;15.77;;
18726;SDS011;9492;51.888;5.186;2022-09-12T01:13:37;19.30;;;14.77;;
18726;SDS011;9492;51.888;5.186;2022-09-12T01:16:03;16.70;;;14.33;;
18726;SDS011;9492;51.888;5.186;2022-09-12T01:31:36;20.77;;;16.20;;
18726;SDS011;9492;51.888;5.186;2022-09-12T01:34:14;22.57;;;16.47;;
18726;SDS011;9492;51.888;5.186;2022-09-12T01:39:23;18.60;;;16.20;;
18726;SDS011;9492;51.888;5.186;2022-09-12T01:41:54;20.63;;;16.23;;
18726;SDS011;9492;51.888;5.186;2022-09-12T01:46:54;20.87;;;15.67;;
18726;SDS011;9492;51.888;5.186;2022-09-12T01:49:24;21.70;;;17.20;;
18726;SDS011;9492;51.888;5.186;2022-09-12T01:51:59;21.40;;;16.30;;
18726;SDS011;9492;51.888;5.186;2022-09-12T01:54:30;18.53;;;15.77;;
18726;SDS011;9492;51.888;5.186;2022-09-12T01:56:59;21.07;;;15.77;;
18726;SDS011;9492;51.888;5.186;2022-09-12T01:59:34;23.57;;;17.33;;
18726;SDS011;9492;51.888;5.186;2022-09-12T02:02:13;20.93;;;16.87;;
18726;SDS011;9492;51.888;5.186;2022-09-12T02:04:45;20.10;;;15.70;;
18726;SDS011;9492;51.888;5.186;2022-09-12T02:07:17;19.67;;;15.77;;
18726;SDS011;9492;51.888;5.186;2022-09-12T02:09:52;20.50;;;16.87;;
18726;SDS011;9492;51.888;5.186;2022-09-12T02:12:20;21.93;;;17.50;;
18726;SDS011;9492;51.888;5.186;2022-09-12T02:14:50;24.07;;;17.43;;
18726;SDS011;9492;51.888;5.186;2022-09-12T02:17:19;22.60;;;17.80;;
18726;SDS011;9492;51.888;5.186;2022-09-12T02:19:46;22.23;;;16.90;;
18726;SDS011;9492;51.888;5.186;2022-09-12T02:22:16;21.17;;;15.50;;
18726;SDS011;9492;51.888;5.186;2022-09-12T02:24:43;22.20;;;17.40;;
18726;SDS011;9492;51.888;5.186;2022-09-12T02:27:13;18.00;;;14.10;;
18726;SDS011;9492;51.888;5.186;2022-09-12T02:29:40;15.73;;;12.53;;
18726;SDS011;9492;51.888;5.186;2022-09-12T02:32:11;14.70;;;12.17;;
18726;SDS011;9492;51.888;5.186;2022-09-12T02:34:45;21.87;;;15.10;;
18726;SDS011;9492;51.888;5.186;2022-09-12T02:39:39;20.50;;;16.33;;
18726;SDS011;9492;51.888;5.186;2022-09-12T02:42:05;19.03;;;15.83;;
18726;SDS011;9492;51.888;5.186;2022-09-12T02:44:31;21.17;;;15.80;;
18726;SDS011;9492;51.888;5.186;2022-09-12T02:47:03;22.93;;;17.00;;
18726;SDS011;9492;51.888;5.186;2022-09-12T02:49:30;21.00;;;16.17;;
18726;SDS011;9492;51.888;5.186;2022-09-12T02:51:56;22.40;;;17.77;;
18726;SDS011;9492;51.888;5.186;2022-09-12T02:54:23;21.13;;;17.03;;
18726;SDS011;9492;51.888;5.186;2022-09-12T02:56:50;24.60;;;18.07;;
18726;SDS011;9492;51.888;5.186;2022-09-12T02:59:17;21.93;;;16.47;;
18726;SDS011;9492;51.888;5.186;2022-09-12T03:07:15;26.60;;;19.57;;
18726;SDS011;9492;51.888;5.186;2022-09-12T03:12:26;21.73;;;17.27;;
18726;SDS011;9492;51.888;5.186;2022-09-12T03:22:51;21.93;;;17.47;;
18726;SDS011;9492;51.888;5.186;2022-09-12T03:27:55;24.50;;;18.33;;
18726;SDS011;9492;51.888;5.186;2022-09-12T03:30:23;23.27;;;17.80;;
18726;SDS011;9492;51.888;5.186;2022-09-12T03:32:50;27.43;;;18.47;;
18726;SDS011;9492;51.888;5.186;2022-09-12T03:35:17;22.63;;;18.43;;
18726;SDS011;9492;51.888;5.186;2022-09-12T03:37:44;25.43;;;19.57;;
18726;SDS011;9492;51.888;5.186;2022-09-12T03:40:11;28.17;;;19.10;;
18726;SDS011;9492;51.888;5.186;2022-09-12T03:42:37;24.03;;;17.67;;
18726;SDS011;9492;51.888;5.186;2022-09-12T03:45:04;26.83;;;19.83;;
18726;SDS011;9492;51.888;5.186;2022-09-12T03:47:30;26.90;;;19.00;;
18726;SDS011;9492;51.888;5.186;2022-09-12T03:49:56;25.17;;;19.00;;
18726;SDS011;9492;51.888;5.186;2022-09-12T03:52:22;27.27;;;19.00;;
18726;SDS011;9492;51.888;5.186;2022-09-12T03:54:48;23.07;;;18.40;;
18726;SDS011;9492;51.888;5.186;2022-09-12T03:57:14;25.57;;;17.97;;
18726;SDS011;9492;51.888;5.186;2022-09-12T03:59:40;26.63;;;18.97;;
18726;SDS011;9492;51.888;5.186;2022-09-12T04:02:06;26.60;;;18.67;;
18726;SDS011;9492;51.888;5.186;2022-09-12T04:04:35;24.00;;;18.90;;
18726;SDS011;9492;51.888;5.186;2022-09-12T04:07:01;25.27;;;18.30;;
18726;SDS011;9492;51.888;5.186;2022-09-12T04:09:27;24.73;;;18.27;;
18726;SDS011;9492;51.888;5.186;2022-09-12T04:11:53;24.30;;;18.73;;
18726;SDS011;9492;51.888;5.186;2022-09-12T04:14:19;24.40;;;17.90;;
18726;SDS011;9492;51.888;5.186;2022-09-12T04:16:45;22.90;;;17.80;;
18726;SDS011;9492;51.888;5.186;2022-09-12T04:19:11;25.43;;;18.60;;
18726;SDS011;9492;51.888;5.186;2022-09-12T04:21:37;21.67;;;16.57;;
18726;SDS011;9492;51.888;5.186;2022-09-12T04:24:04;26.23;;;17.33;;
18726;SDS011;9492;51.888;5.186;2022-09-12T04:26:30;25.87;;;18.17;;
18726;SDS011;9492;51.888;5.186;2022-09-12T04:28:56;22.77;;;17.40;;
18726;SDS011;9492;51.888;5.186;2022-09-12T04:31:22;21.00;;;15.87;;
18726;SDS011;9492;51.888;5.186;2022-09-12T04:33:58;23.97;;;17.57;;
18726;SDS011;9492;51.888;5.186;2022-09-12T04:36:25;25.07;;;18.67;;
18726;SDS011;9492;51.888;5.186;2022-09-12T04:38:51;24.90;;;17.23;;
18726;SDS011;9492;51.888;5.186;2022-09-12T04:43:43;24.73;;;18.50;;
18726;SDS011;9492;51.888;5.186;2022-09-12T04:46:10;25.37;;;18.73;;
18726;SDS011;9492;51.888;5.186;2022-09-12T04:48:36;26.93;;;19.53;;
18726;SDS011;9492;51.888;5.186;2022-09-12T04:51:10;24.40;;;18.13;;
18726;SDS011;9492;51.888;5.186;2022-09-12T04:53:36;21.90;;;17.93;;
18726;SDS011;9492;51.888;5.186;2022-09-12T04:56:03;24.77;;;19.70;;
18726;SDS011;9492;51.888;5.186;2022-09-12T04:58:30;25.90;;;18.50;;
18726;SDS011;9492;51.888;5.186;2022-09-12T05:01:07;25.63;;;19.20;;
18726;SDS011;9492;51.888;5.186;2022-09-12T05:03:33;24.97;;;18.50;;
18726;SDS011;9492;51.888;5.186;2022-09-12T05:06:02;25.77;;;17.80;;
18726;SDS011;9492;51.888;5.186;2022-09-12T05:08:29;26.40;;;19.13;;
18726;SDS011;9492;51.888;5.186;2022-09-12T05:10:55;23.13;;;18.07;;
18726;SDS011;9492;51.888;5.186;2022-09-12T05:13:21;25.13;;;17.70;;
18726;SDS011;9492;51.888;5.186;2022-09-12T05:15:54;23.63;;;18.20;;
18726;SDS011;9492;51.888;5.186;2022-09-12T05:18:19;27.20;;;19.07;;
18726;SDS011;9492;51.888;5.186;2022-09-12T05:20:45;25.10;;;19.03;;
18726;SDS011;9492;51.888;5.186;2022-09-12T05:23:11;27.40;;;18.83;;
18726;SDS011;9492;51.888;5.186;2022-09-12T05:25:37;24.20;;;18.43;;
18726;SDS011;9492;51.888;5.186;2022-09-12T05:28:03;26.87;;;18.40;;
18726;SDS011;9492;51.888;5.186;2022-09-12T05:30:29;28.57;;;20.33;;
18726;SDS011;9492;51.888;5.186;2022-09-12T05:32:55;24.20;;;17.43;;
18726;SDS011;9492;51.888;5.186;2022-09-12T05:35:21;27.87;;;19.90;;
18726;SDS011;9492;51.888;5.186;2022-09-12T05:37:47;28.73;;;19.97;;
18726;SDS011;9492;51.888;5.186;2022-09-12T05:40:13;22.90;;;18.57;;
18726;SDS011;9492;51.888;5.186;2022-09-12T05:42:41;25.63;;;18.33;;
18726;SDS011;9492;51.888;5.186;2022-09-12T05:45:07;26.80;;;19.37;;
18726;SDS011;9492;51.888;5.186;2022-09-12T05:47:33;25.70;;;19.60;;
18726;SDS011;9492;51.888;5.186;2022-09-12T05:49:59;24.33;;;18.83;;
18726;SDS011;9492;51.888;5.186;2022-09-12T05:52:25;26.90;;;19.27;;
18726;SDS011;9492;51.888;5.186;2022-09-12T05:54:51;25.13;;;18.50;;
18726;SDS011;9492;51.888;5.186;2022-09-12T05:57:17;28.30;;;20.50;;
18726;SDS011;9492;51.888;5.186;2022-09-12T05:59:43;29.40;;;19.97;;
18726;SDS011;9492;51.888;5.186;2022-09-12T06:02:09;29.53;;;19.87;;
18726;SDS011;9492;51.888;5.186;2022-09-12T06:04:36;29.63;;;19.77;;
18726;SDS011;9492;51.888;5.186;2022-09-12T06:07:04;31.03;;;21.20;;
18726;SDS011;9492;51.888;5.186;2022-09-12T06:09:30;31.40;;;21.00;;
18726;SDS011;9492;51.888;5.186;2022-09-12T06:11:56;27.10;;;20.03;;
18726;SDS011;9492;51.888;5.186;2022-09-12T06:14:22;28.77;;;21.23;;
18726;SDS011;9492;51.888;5.186;2022-09-12T06:16:49;25.20;;;18.50;;
18726;SDS011;9492;51.888;5.186;2022-09-12T06:19:16;28.03;;;19.57;;
18726;SDS011;9492;51.888;5.186;2022-09-12T06:21:43;25.43;;;19.70;;
18726;SDS011;9492;51.888;5.186;2022-09-12T06:24:09;27.87;;;20.20;;
18726;SDS011;9492;51.888;5.186;2022-09-12T06:26:35;27.97;;;20.67;;
18726;SDS011;9492;51.888;5.186;2022-09-12T06:29:02;27.57;;;21.37;;
18726;SDS011;9492;51.888;5.186;2022-09-12T06:31:30;28.27;;;22.13;;
18726;SDS011;9492;51.888;5.186;2022-09-12T06:33:58;29.40;;;21.67;;
18726;SDS011;9492;51.888;5.186;2022-09-12T06:36:25;32.67;;;22.23;;
18726;SDS011;9492;51.888;5.186;2022-09-12T06:39:01;32.27;;;23.20;;
18726;SDS011;9492;51.888;5.186;2022-09-12T06:41:28;30.67;;;22.30;;
18726;SDS011;9492;51.888;5.186;2022-09-12T06:43:55;29.10;;;22.47;;
18726;SDS011;9492;51.888;5.186;2022-09-12T06:46:21;28.77;;;20.70;;
18726;SDS011;9492;51.888;5.186;2022-09-12T06:48:47;26.80;;;20.27;;
18726;SDS011;9492;51.888;5.186;2022-09-12T06:51:15;29.23;;;21.10;;
18726;SDS011;9492;51.888;5.186;2022-09-12T06:53:41;26.60;;;19.87;;
18726;SDS011;9492;51.888;5.186;2022-09-12T06:58:37;28.00;;;20.27;;
18726;SDS011;9492;51.888;5.186;2022-09-12T07:01:12;33.70;;;21.70;;
18726;SDS011;9492;51.888;5.186;2022-09-12T07:03:39;25.00;;;18.80;;
18726;SDS011;9492;51.888;5.186;2022-09-12T07:06:10;23.23;;;19.60;;
18726;SDS011;9492;51.888;5.186;2022-09-12T07:08:36;23.77;;;18.60;;
18726;SDS011;9492;51.888;5.186;2022-09-12T07:13:44;27.57;;;19.00;;
18726;SDS011;9492;51.888;5.186;2022-09-12T07:16:11;29.03;;;20.40;;
18726;SDS011;9492;51.888;5.186;2022-09-12T07:18:38;25.00;;;19.37;;
18726;SDS011;9492;51.888;5.186;2022-09-12T07:21:11;24.43;;;18.83;;
18726;SDS011;9492;51.888;5.186;2022-09-12T07:23:38;23.37;;;18.93;;
18726;SDS011;9492;51.888;5.186;2022-09-12T07:26:06;23.40;;;18.90;;
18726;SDS011;9492;51.888;5.186;2022-09-12T07:28:32;27.50;;;19.83;;
18726;SDS011;9492;51.888;5.186;2022-09-12T07:31:12;24.13;;;18.13;;
18726;SDS011;9492;51.888;5.186;2022-09-12T07:33:39;25.30;;;20.10;;
18726;SDS011;9492;51.888;5.186;2022-09-12T07:36:06;24.00;;;18.47;;
18726;SDS011;9492;51.888;5.186;2022-09-12T07:38:32;22.50;;;17.30;;
18726;SDS011;9492;51.888;5.186;2022-09-12T07:40:58;23.50;;;18.97;;
18726;SDS011;9492;51.888;5.186;2022-09-12T07:43:25;26.27;;;19.67;;
18726;SDS011;9492;51.888;5.186;2022-09-12T07:45:55;23.93;;;18.20;;
18726;SDS011;9492;51.888;5.186;2022-09-12T07:48:21;23.27;;;18.30;;
18726;SDS011;9492;51.888;5.186;2022-09-12T07:50:47;22.10;;;18.00;;
18726;SDS011;9492;51.888;5.186;2022-09-12T07:53:21;19.67;;;16.87;;
18726;SDS011;9492;51.888;5.186;2022-09-12T07:55:54;19.87;;;16.60;;
18726;SDS011;9492;51.888;5.186;2022-09-12T07:58:20;22.70;;;18.30;;
18726;SDS011;9492;51.888;5.186;2022-09-12T08:00:46;19.57;;;16.97;;
18726;SDS011;9492;51.888;5.186;2022-09-12T08:03:12;20.80;;;17.60;;
18726;SDS011;9492;51.888;5.186;2022-09-12T08:05:38;18.83;;;14.80;;
18726;SDS011;9492;51.888;5.186;2022-09-12T08:08:04;16.87;;;14.23;;
18726;SDS011;9492;51.888;5.186;2022-09-12T08:10:30;16.47;;;14.67;;
18726;SDS011;9492;51.888;5.186;2022-09-12T08:12:56;21.87;;;16.13;;
18726;SDS011;9492;51.888;5.186;2022-09-12T08:15:23;19.23;;;17.17;;
18726;SDS011;9492;51.888;5.186;2022-09-12T08:17:49;18.47;;;15.63;;
18726;SDS011;9492;51.888;5.186;2022-09-12T08:20:15;20.93;;;17.37;;
18726;SDS011;9492;51.888;5.186;2022-09-12T08:22:42;21.43;;;16.07;;
18726;SDS011;9492;51.888;5.186;2022-09-12T08:25:08;21.07;;;15.90;;
18726;SDS011;9492;51.888;5.186;2022-09-12T08:27:34;18.40;;;15.43;;
18726;SDS011;9492;51.888;5.186;2022-09-12T08:30:00;17.17;;;14.17;;
18726;SDS011;9492;51.888;5.186;2022-09-12T08:32:26;14.20;;;12.50;;
18726;SDS011;9492;51.888;5.186;2022-09-12T08:34:52;16.93;;;12.77;;
18726;SDS011;9492;51.888;5.186;2022-09-12T08:37:18;16.17;;;13.80;;
18726;SDS011;9492;51.888;5.186;2022-09-12T08:39:44;14.17;;;12.30;;
18726;SDS011;9492;51.888;5.186;2022-09-12T08:42:13;17.87;;;15.97;;
18726;SDS011;9492;51.888;5.186;2022-09-12T08:49:58;13.47;;;12.07;;
18726;SDS011;9492;51.888;5.186;2022-09-12T08:52:31;15.87;;;12.73;;
18726;SDS011;9492;51.888;5.186;2022-09-12T08:54:59;12.73;;;11.27;;
18726;SDS011;9492;51.888;5.186;2022-09-12T08:57:25;13.52;;;12.15;;
18726;SDS011;9492;51.888;5.186;2022-09-12T08:59:51;13.77;;;12.23;;
18726;SDS011;9492;51.888;5.186;2022-09-12T09:04:50;13.10;;;11.23;;
18726;SDS011;9492;51.888;5.186;2022-09-12T09:12:15;12.40;;;11.10;;
18726;SDS011;9492;51.888;5.186;2022-09-12T09:22:45;12.97;;;10.13;;
18726;SDS011;9492;51.888;5.186;2022-09-12T09:25:55;11.30;;;10.20;;
18726;SDS011;9492;51.888;5.186;2022-09-12T09:28:14;13.50;;;10.60;;
18726;SDS011;9492;51.888;5.186;2022-09-12T09:30:42;13.10;;;11.00;;
18726;SDS011;9492;51.888;5.186;2022-09-12T09:33:09;14.47;;;10.93;;
18726;SDS011;9492;51.888;5.186;2022-09-12T09:35:46;14.70;;;11.70;;
18726;SDS011;9492;51.888;5.186;2022-09-12T09:40:55;10.77;;;9.37;;
18726;SDS011;9492;51.888;5.186;2022-09-12T09:43:25;11.53;;;10.33;;
18726;SDS011;9492;51.888;5.186;2022-09-12T09:45:53;11.80;;;10.60;;
18726;SDS011;9492;51.888;5.186;2022-09-12T09:50:49;10.20;;;8.43;;
18726;SDS011;9492;51.888;5.186;2022-09-12T09:55:44;11.13;;;8.37;;
18726;SDS011;9492;51.888;5.186;2022-09-12T09:58:10;9.43;;;8.50;;
18726;SDS011;9492;51.888;5.186;2022-09-12T10:00:36;11.83;;;10.20;;
18726;SDS011;9492;51.888;5.186;2022-09-12T10:05:46;9.13;;;8.17;;
18726;SDS011;9492;51.888;5.186;2022-09-12T10:08:19;9.03;;;7.83;;
18726;SDS011;9492;51.888;5.186;2022-09-12T10:10:54;9.50;;;6.90;;
18726;SDS011;9492;51.888;5.186;2022-09-12T10:13:32;7.77;;;6.97;;
18726;SDS011;9492;51.888;5.186;2022-09-12T10:16:00;6.40;;;5.80;;
18726;SDS011;9492;51.888;5.186;2022-09-12T10:18:39;7.80;;;7.00;;
18726;SDS011;9492;51.888;5.186;2022-09-12T10:21:13;7.50;;;6.70;;
18726;SDS011;9492;51.888;5.186;2022-09-12T10:23:40;10.93;;;8.30;;
18726;SDS011;9492;51.888;5.186;2022-09-12T10:26:11;6.63;;;5.93;;
18726;SDS011;9492;51.888;5.186;2022-09-12T10:29:11;9.00;;;7.30;;
18726;SDS011;9492;51.888;5.186;2022-09-12T10:31:34;7.50;;;6.53;;
18726;SDS011;9492;51.888;5.186;2022-09-12T10:34:03;7.67;;;6.80;;
18726;SDS011;9492;51.888;5.186;2022-09-12T10:36:36;8.23;;;7.43;;
18726;SDS011;9492;51.888;5.186;2022-09-12T10:39:02;6.20;;;5.60;;
18726;SDS011;9492;51.888;5.186;2022-09-12T10:41:38;7.83;;;6.83;;
18726;SDS011;9492;51.888;5.186;2022-09-12T10:44:06;8.47;;;7.07;;
18726;SDS011;9492;51.888;5.186;2022-09-12T10:46:33;7.13;;;6.43;;
18726;SDS011;9492;51.888;5.186;2022-09-12T10:49:13;7.77;;;5.90;;
18726;SDS011;9492;51.888;5.186;2022-09-12T10:51:45;6.60;;;5.90;;
18726;SDS011;9492;51.888;5.186;2022-09-12T10:54:11;7.03;;;5.83;;
18726;SDS011;9492;51.888;5.186;2022-09-12T10:56:38;9.37;;;6.00;;
18726;SDS011;9492;51.888;5.186;2022-09-12T11:01:48;6.87;;;5.70;;
18726;SDS011;9492;51.888;5.186;2022-09-12T11:04:21;6.07;;;5.47;;
18726;SDS011;9492;51.888;5.186;2022-09-12T11:17:14;5.73;;;5.23;;
18726;SDS011;9492;51.888;5.186;2022-09-12T11:30:24;5.40;;;3.83;;
18726;SDS011;9492;51.888;5.186;2022-09-12T11:33:39;3.77;;;3.47;;
18726;SDS011;9492;51.888;5.186;2022-09-12T11:35:40;5.37;;;3.37;;
18726;SDS011;9492;51.888;5.186;2022-09-12T11:38:14;4.63;;;3.60;;
18726;SDS011;9492;51.888;5.186;2022-09-12T11:43:23;3.57;;;3.27;;
18726;SDS011;9492;51.888;5.186;2022-09-12T11:45:51;4.30;;;3.90;;
18726;SDS011;9492;51.888;5.186;2022-09-12T11:48:39;4.63;;;3.53;;
18726;SDS011;9492;51.888;5.186;2022-09-12T11:51:14;4.07;;;3.67;;
18726;SDS011;9492;51.888;5.186;2022-09-12T11:53:42;3.23;;;3.03;;
18726;SDS011;9492;51.888;5.186;2022-09-12T11:56:18;4.07;;;3.47;;
18726;SDS011;9492;51.888;5.186;2022-09-12T11:58:48;3.70;;;3.40;;
18726;SDS011;9492;51.888;5.186;2022-09-12T12:01:19;5.23;;;3.47;;
18726;SDS011;9492;51.888;5.186;2022-09-12T12:03:46;3.70;;;3.27;;
18726;SDS011;9492;51.888;5.186;2022-09-12T12:08:40;3.40;;;3.10;;
18726;SDS011;9492;51.888;5.186;2022-09-12T12:11:07;3.93;;;3.37;;
18726;SDS011;9492;51.888;5.186;2022-09-12T12:13:37;4.10;;;3.30;;
18726;SDS011;9492;51.888;5.186;2022-09-12T12:19:32;3.40;;;3.10;;
18726;SDS011;9492;51.888;5.186;2022-09-12T12:21:45;3.70;;;3.30;;
18726;SDS011;9492;51.888;5.186;2022-09-12T12:24:25;4.67;;;4.27;;
18726;SDS011;9492;51.888;5.186;2022-09-12T12:27:01;4.50;;;3.90;;
18726;SDS011;9492;51.888;5.186;2022-09-12T12:29:35;3.07;;;2.87;;
18726;SDS011;9492;51.888;5.186;2022-09-12T12:36:56;4.00;;;3.60;;
18726;SDS011;9492;51.888;5.186;2022-09-12T12:41:58;5.80;;;3.90;;
18726;SDS011;9492;51.888;5.186;2022-09-12T12:44:46;4.00;;;3.60;;
18726;SDS011;9492;51.888;5.186;2022-09-12T12:47:18;4.10;;;3.70;;
18726;SDS011;9492;51.888;5.186;2022-09-12T12:49:58;5.80;;;4.03;;
18726;SDS011;9492;51.888;5.186;2022-09-12T12:52:27;5.20;;;3.87;;
18726;SDS011;9492;51.888;5.186;2022-09-12T12:54:55;5.67;;;3.97;;
18726;SDS011;9492;51.888;5.186;2022-09-12T13:00:03;4.23;;;3.20;;
18726;SDS011;9492;51.888;5.186;2022-09-12T13:02:34;7.03;;;3.40;;
18726;SDS011;9492;51.888;5.186;2022-09-12T13:05:01;4.97;;;3.53;;
18726;SDS011;9492;51.888;5.186;2022-09-12T13:07:35;3.73;;;3.37;;
18726;SDS011;9492;51.888;5.186;2022-09-12T13:10:02;3.30;;;3.00;;
18726;SDS011;9492;51.888;5.186;2022-09-12T13:12:30;2.87;;;2.67;;
18726;SDS011;9492;51.888;5.186;2022-09-12T13:15:00;3.73;;;3.43;;
18726;SDS011;9492;51.888;5.186;2022-09-12T13:17:40;3.60;;;3.27;;
18726;SDS011;9492;51.888;5.186;2022-09-12T13:22:46;4.13;;;3.70;;
18726;SDS011;9492;51.888;5.186;2022-09-12T13:30:23;4.00;;;3.60;;
18726;SDS011;9492;51.888;5.186;2022-09-12T13:32:50;3.83;;;3.40;;
18726;SDS011;9492;51.888;5.186;2022-09-12T13:35:20;3.60;;;3.30;;
18726;SDS011;9492;51.888;5.186;2022-09-12T13:37:57;5.60;;;2.90;;
18726;SDS011;9492;51.888;5.186;2022-09-12T13:40:32;3.90;;;2.70;;
18726;SDS011;9492;51.888;5.186;2022-09-12T13:43:12;3.70;;;3.10;;
18726;SDS011;9492;51.888;5.186;2022-09-12T13:45:39;3.90;;;3.10;;
18726;SDS011;9492;51.888;5.186;2022-09-12T13:48:05;3.63;;;3.00;;
18726;SDS011;9492;51.888;5.186;2022-09-12T13:50:36;2.80;;;2.50;;
18726;SDS011;9492;51.888;5.186;2022-09-12T13:53:05;2.93;;;2.73;;
18726;SDS011;9492;51.888;5.186;2022-09-12T13:55:32;2.90;;;2.60;;
18726;SDS011;9492;51.888;5.186;2022-09-12T13:58:00;2.33;;;2.17;;
18726;SDS011;9492;51.888;5.186;2022-09-12T14:00:27;2.77;;;2.57;;
18726;SDS011;9492;51.888;5.186;2022-09-12T14:02:54;2.53;;;2.23;;
18726;SDS011;9492;51.888;5.186;2022-09-12T14:05:40;3.63;;;2.23;;
18726;SDS011;9492;51.888;5.186;2022-09-12T14:08:08;3.30;;;2.20;;
18726;SDS011;9492;51.888;5.186;2022-09-12T14:10:37;2.50;;;2.30;;
18726;SDS011;9492;51.888;5.186;2022-09-12T14:13:22;2.30;;;2.10;;
18726;SDS011;9492;51.888;5.186;2022-09-12T14:15:50;3.10;;;2.40;;
18726;SDS011;9492;51.888;5.186;2022-09-12T14:18:24;3.30;;;2.20;;
18726;SDS011;9492;51.888;5.186;2022-09-12T14:20:51;1.83;;;1.73;;
18726;SDS011;9492;51.888;5.186;2022-09-12T14:23:22;2.30;;;2.00;;
18726;SDS011;9492;51.888;5.186;2022-09-12T14:25:51;2.63;;;2.43;;
18726;SDS011;9492;51.888;5.186;2022-09-12T14:28:19;2.40;;;1.97;;
18726;SDS011;9492;51.888;5.186;2022-09-12T14:31:02;2.60;;;2.40;;
18726;SDS011;9492;51.888;5.186;2022-09-12T14:33:31;2.33;;;2.07;;
18726;SDS011;9492;51.888;5.186;2022-09-12T14:36:11;2.10;;;2.00;;
18726;SDS011;9492;51.888;5.186;2022-09-12T14:38:42;2.00;;;1.90;;
18726;SDS011;9492;51.888;5.186;2022-09-12T14:41:10;3.03;;;2.33;;
18726;SDS011;9492;51.888;5.186;2022-09-12T14:43:38;2.93;;;2.20;;
18726;SDS011;9492;51.888;5.186;2022-09-12T14:46:06;2.27;;;1.97;;
18726;SDS011;9492;51.888;5.186;2022-09-12T14:48:42;2.08;;;1.75;;
18726;SDS011;9492;51.888;5.186;2022-09-12T14:51:15;2.10;;;1.90;;
18726;SDS011;9492;51.888;5.186;2022-09-12T14:53:46;2.50;;;2.30;;
18726;SDS011;9492;51.888;5.186;2022-09-12T14:56:13;5.63;;;2.53;;
18726;SDS011;9492;51.888;5.186;2022-09-12T14:58:39;3.37;;;2.17;;
18726;SDS011;9492;51.888;5.186;2022-09-12T15:03:36;3.07;;;2.10;;
18726;SDS011;9492;51.888;5.186;2022-09-12T15:06:03;1.87;;;1.77;;
18726;SDS011;9492;51.888;5.186;2022-09-12T15:08:32;2.90;;;2.40;;
18726;SDS011;9492;51.888;5.186;2022-09-12T15:10:58;2.13;;;2.03;;
18726;SDS011;9492;51.888;5.186;2022-09-12T15:13:25;2.37;;;2.00;;
18726;SDS011;9492;51.888;5.186;2022-09-12T15:15:56;1.67;;;1.57;;
18726;SDS011;9492;51.888;5.186;2022-09-12T15:18:23;2.43;;;2.17;;
18726;SDS011;9492;51.888;5.186;2022-09-12T15:20:51;3.07;;;1.77;;
18726;SDS011;9492;51.888;5.186;2022-09-12T15:23:19;3.33;;;1.97;;
18726;SDS011;9492;51.888;5.186;2022-09-12T15:25:46;2.27;;;2.03;;
18726;SDS011;9492;51.888;5.186;2022-09-12T15:28:17;2.43;;;2.00;;
18726;SDS011;9492;51.888;5.186;2022-09-12T15:30:44;4.07;;;2.47;;
18726;SDS011;9492;51.888;5.186;2022-09-12T15:33:10;2.70;;;2.50;;
18726;SDS011;9492;51.888;5.186;2022-09-12T15:35:36;2.40;;;2.20;;
18726;SDS011;9492;51.888;5.186;2022-09-12T15:38:03;2.00;;;1.90;;
18726;SDS011;9492;51.888;5.186;2022-09-12T15:40:29;2.27;;;1.77;;
18726;SDS011;9492;51.888;5.186;2022-09-12T15:42:55;2.30;;;2.07;;
18726;SDS011;9492;51.888;5.186;2022-09-12T15:45:24;2.23;;;1.70;;
18726;SDS011;9492;51.888;5.186;2022-09-12T15:47:51;1.90;;;1.80;;
18726;SDS011;9492;51.888;5.186;2022-09-12T15:50:17;3.63;;;2.00;;
18726;SDS011;9492;51.888;5.186;2022-09-12T15:52:44;1.70;;;1.60;;
18726;SDS011;9492;51.888;5.186;2022-09-12T15:55:23;1.20;;;1.20;;
18726;SDS011;9492;51.888;5.186;2022-09-12T15:57:49;2.37;;;1.80;;
18726;SDS011;9492;51.888;5.186;2022-09-12T16:00:19;2.70;;;1.73;;
18726;SDS011;9492;51.888;5.186;2022-09-12T16:02:45;2.23;;;1.60;;
18726;SDS011;9492;51.888;5.186;2022-09-12T16:05:13;1.33;;;1.23;;
18726;SDS011;9492;51.888;5.186;2022-09-12T16:07:40;1.85;;;1.75;;
18726;SDS011;9492;51.888;5.186;2022-09-12T16:10:06;1.77;;;1.67;;
18726;SDS011;9492;51.888;5.186;2022-09-12T16:12:33;1.50;;;1.40;;
18726;SDS011;9492;51.888;5.186;2022-09-12T16:14:59;1.97;;;1.80;;
18726;SDS011;9492;51.888;5.186;2022-09-12T16:17:25;1.50;;;1.40;;
18726;SDS011;9492;51.888;5.186;2022-09-12T16:19:51;2.27;;;1.57;;
18726;SDS011;9492;51.888;5.186;2022-09-12T16:22:17;2.03;;;1.70;;
18726;SDS011;9492;51.888;5.186;2022-09-12T16:24:43;1.80;;;1.70;;
18726;SDS011;9492;51.888;5.186;2022-09-12T16:27:09;1.70;;;1.60;;
18726;SDS011;9492;51.888;5.186;2022-09-12T16:29:36;1.45;;;1.42;;
18726;SDS011;9492;51.888;5.186;2022-09-12T16:32:02;2.47;;;1.85;;
18726;SDS011;9492;51.888;5.186;2022-09-12T16:34:28;2.43;;;1.87;;
18726;SDS011;9492;51.888;5.186;2022-09-12T16:36:54;1.97;;;1.80;;
18726;SDS011;9492;51.888;5.186;2022-09-12T16:39:20;1.93;;;1.83;;
18726;SDS011;9492;51.888;5.186;2022-09-12T16:41:46;1.97;;;1.77;;
18726;SDS011;9492;51.888;5.186;2022-09-12T16:44:12;1.93;;;1.83;;
18726;SDS011;9492;51.888;5.186;2022-09-12T16:46:38;2.10;;;2.00;;
18726;SDS011;9492;51.888;5.186;2022-09-12T16:49:04;1.97;;;1.80;;
18726;SDS011;9492;51.888;5.186;2022-09-12T16:51:31;2.60;;;1.80;;
18726;SDS011;9492;51.888;5.186;2022-09-12T16:54:00;2.00;;;1.80;;
18726;SDS011;9492;51.888;5.186;2022-09-12T16:56:26;2.10;;;2.00;;
18726;SDS011;9492;51.888;5.186;2022-09-12T16:58:52;3.03;;;2.37;;
18726;SDS011;9492;51.888;5.186;2022-09-12T17:01:20;3.07;;;2.30;;
18726;SDS011;9492;51.888;5.186;2022-09-12T17:03:46;3.37;;;2.53;;
18726;SDS011;9492;51.888;5.186;2022-09-12T17:06:14;2.33;;;2.17;;
18726;SDS011;9492;51.888;5.186;2022-09-12T17:08:41;2.60;;;2.40;;